createdAt,value
2022-10-20T00:14:14.571Z,96425.28
2022-10-20T00:29:19.454Z,96408.78
2022-10-20T00:44:40.434Z,96391.91
2022-10-20T00:59:42.303Z,96383.91
2022-10-20T01:14:49.599Z,96357.00
2022-10-20T01:29:53.599Z,96338.41
2022-10-20T01:44:56.505Z,96312.03
2022-10-20T02:00:03.525Z,96275.50
2022-10-20T02:15:06.339Z,96274.38
2022-10-20T02:30:09.076Z,96268.16
2022-10-20T02:45:11.135Z,96265.88
2022-10-20T03:00:13.335Z,96258.69
2022-10-20T03:15:15.306Z,96243.03
2022-10-20T03:30:17.258Z,96255.13
2022-10-20T03:45:19.125Z,96254.47
2022-10-20T04:00:21.010Z,96260.97
2022-10-20T04:15:22.934Z,96255.09
2022-10-20T04:30:24.823Z,96233.25
2022-10-20T04:45:26.815Z,96206.47
2022-10-20T05:00:28.709Z,96201.06
2022-10-20T05:15:30.616Z,96204.19
2022-10-20T05:30:35.729Z,96186.56
2022-10-20T05:45:37.677Z,96173.31
2022-10-20T06:00:51.824Z,96180.03
2022-10-20T06:15:53.771Z,96156.84
2022-10-20T06:30:55.637Z,96176.41
2022-10-20T06:45:58.246Z,96175.88
2022-10-20T07:01:00.779Z,96190.69
2022-10-20T07:16:02.728Z,96182.56
2022-10-20T07:31:05.205Z,96163.84
2022-10-20T07:46:07.706Z,96170.78
2022-10-20T08:01:09.764Z,96158.44
2022-10-20T08:16:12.062Z,96156.97
2022-10-20T08:31:13.971Z,96154.56
2022-10-20T08:46:16.257Z,96145.28
2022-10-20T09:01:25.205Z,96140.41
2022-10-20T09:16:40.906Z,96130.66
2022-10-20T09:31:52.370Z,96143.22
2022-10-20T09:46:54.336Z,96146.22
2022-10-20T10:01:59.911Z,96141.00
2022-10-20T10:17:01.791Z,96141.78
2022-10-20T10:32:10.619Z,96134.78
2022-10-20T10:47:27.746Z,96141.28
2022-10-20T11:03:02.159Z,96139.63
2022-10-20T11:18:03.998Z,96156.31
2022-10-20T11:33:09.741Z,96126.19
2022-10-20T11:48:17.748Z,96113.38
2022-10-20T12:03:28.795Z,96086.53
2022-10-20T12:18:31.394Z,96084.66
2022-10-20T12:33:39.292Z,96069.59
2022-10-20T12:48:42.473Z,96058.84
2022-10-20T13:03:46.719Z,96052.63
2022-10-20T13:18:50.449Z,96055.06
2022-10-20T13:34:07.180Z,96059.31
2022-10-20T13:49:24.141Z,96014.91
2022-10-20T14:04:29.977Z,96016.34
2022-10-20T14:19:33.444Z,96000.75
2022-10-20T14:34:36.208Z,95995.44
2022-10-20T14:49:38.161Z,95992.34
2022-10-20T15:04:40.543Z,96020.19
2022-10-20T15:19:42.422Z,95991.97
2022-10-20T15:34:44.907Z,95999.06
2022-10-20T15:49:47.049Z,95990.81
2022-10-20T16:04:48.914Z,96008.69
2022-10-20T16:19:50.797Z,95966.13
2022-10-20T16:34:52.684Z,96007.22
2022-10-20T16:49:54.583Z,95986.38
2022-10-20T17:04:57.099Z,95986.72
2022-10-20T17:19:59.082Z,95990.38
2022-10-20T17:35:00.999Z,95970.28
2022-10-20T17:50:02.994Z,95929.81
2022-10-20T18:05:05.230Z,95970.22
2022-10-20T18:20:07.292Z,95983.50
2022-10-20T18:35:09.397Z,96011.19
2022-10-20T18:50:11.354Z,96005.31
2022-10-20T19:05:13.371Z,96023.03
2022-10-20T19:20:15.568Z,96018.19
2022-10-20T19:35:17.753Z,95979.84
2022-10-20T19:50:19.676Z,95971.59
2022-10-20T20:05:21.566Z,96008.47
2022-10-20T20:20:23.460Z,95991.03
2022-10-20T20:35:25.426Z,95994.03
2022-10-20T20:50:27.298Z,95958.72
2022-10-20T21:05:29.177Z,95956.41
2022-10-20T21:20:31.074Z,95962.84
2022-10-20T21:35:32.955Z,95972.41
2022-10-20T21:50:35.329Z,95965.00
2022-10-20T22:05:37.204Z,95944.88
2022-10-20T22:20:39.104Z,95950.69
2022-10-20T22:35:40.968Z,95941.44
2022-10-20T22:50:42.845Z,95911.44
2022-10-20T23:05:44.721Z,95918.75
2022-10-20T23:20:46.590Z,95888.94
2022-10-20T23:35:48.516Z,95893.88
2022-10-20T23:50:50.422Z,95905.25
